<?xml version="1.0" encoding="UTF-8" standalone="no" ?>
<gpx xmlns="http://www.topografix.com/GPX/1/1" xmlns:xsi="http://www.w3.org/2001/XMLSchema-instance" xsi:schemaLocation="http://www.topografix.com/GPX/1/1 http://www.topografix.com/GPX/1/1/gpx.xsd" version="1.1" creator="VisuGPX - https://www.visugpx.com">
  <metadata>
    <name>13032088-10 ROUGE _ Panorama sur la vallée de la Cèze</name>
  </metadata>
  <trk>
    <name><![CDATA[13032088-10 ROUGE _ Panorama sur la vallée de la Cèze]]></name>
    <trkseg>
      <trkpt lat="44.21827" lon="4.48566">
        <ele>88</ele>
        <time>2021-09-06T08:17:29Z</time>
      </trkpt>
      <trkpt lat="44.2188" lon="4.48604">
        <ele>88</ele>
        <time>2021-09-06T08:17:43Z</time>
      </trkpt>
      <trkpt lat="44.21862" lon="4.48742">
        <ele>92</ele>
        <time>2021-09-06T08:18:06Z</time>
      </trkpt>
      <trkpt lat="44.21894" lon="4.48818">
        <ele>99</ele>
        <time>2021-09-06T08:18:21Z</time>
      </trkpt>
      <trkpt lat="44.21996" lon="4.48759">
        <ele>106</ele>
        <time>2021-09-06T08:18:47Z</time>
      </trkpt>
      <trkpt lat="44.22205" lon="4.48706">
        <ele>116</ele>
        <time>2021-09-06T08:19:37Z</time>
      </trkpt>
      <trkpt lat="44.22255" lon="4.48765">
        <ele>129</ele>
        <time>2021-09-06T08:19:52Z</time>
      </trkpt>
      <trkpt lat="44.22322" lon="4.48763">
        <ele>135</ele>
        <time>2021-09-06T08:20:07Z</time>
      </trkpt>
      <trkpt lat="44.22394" lon="4.48614">
        <ele>142</ele>
        <time>2021-09-06T08:20:38Z</time>
      </trkpt>
      <trkpt lat="44.22362" lon="4.48803">
        <ele>149</ele>
        <time>2021-09-06T08:21:10Z</time>
      </trkpt>
      <trkpt lat="44.22417" lon="4.48864">
        <ele>162</ele>
        <time>2021-09-06T08:21:26Z</time>
      </trkpt>
      <trkpt lat="44.22438" lon="4.4891">
        <ele>159</ele>
        <time>2021-09-06T08:21:36Z</time>
      </trkpt>
      <trkpt lat="44.22461" lon="4.48904">
        <ele>160</ele>
        <time>2021-09-06T08:21:41Z</time>
      </trkpt>
      <trkpt lat="44.22473" lon="4.48962">
        <ele>160</ele>
        <time>2021-09-06T08:21:51Z</time>
      </trkpt>
      <trkpt lat="44.22462" lon="4.4899">
        <ele>161</ele>
        <time>2021-09-06T08:21:57Z</time>
      </trkpt>
      <trkpt lat="44.22468" lon="4.49036">
        <ele>165</ele>
        <time>2021-09-06T08:22:04Z</time>
      </trkpt>
      <trkpt lat="44.22439" lon="4.49072">
        <ele>173</ele>
        <time>2021-09-06T08:22:13Z</time>
      </trkpt>
      <trkpt lat="44.22448" lon="4.49118">
        <ele>175</ele>
        <time>2021-09-06T08:22:21Z</time>
      </trkpt>
      <trkpt lat="44.22399" lon="4.49235">
        <ele>183</ele>
        <time>2021-09-06T08:22:44Z</time>
      </trkpt>
      <trkpt lat="44.22416" lon="4.49333">
        <ele>182</ele>
        <time>2021-09-06T08:23:01Z</time>
      </trkpt>
      <trkpt lat="44.22433" lon="4.49381">
        <ele>187</ele>
        <time>2021-09-06T08:23:10Z</time>
      </trkpt>
      <trkpt lat="44.22488" lon="4.49414">
        <ele>197</ele>
        <time>2021-09-06T08:23:24Z</time>
      </trkpt>
      <trkpt lat="44.22498" lon="4.49474">
        <ele>203</ele>
        <time>2021-09-06T08:23:34Z</time>
      </trkpt>
      <trkpt lat="44.22589" lon="4.49442">
        <ele>210</ele>
        <time>2021-09-06T08:23:56Z</time>
      </trkpt>
      <trkpt lat="44.22646" lon="4.49432">
        <ele>213</ele>
        <time>2021-09-06T08:24:10Z</time>
      </trkpt>
      <trkpt lat="44.22658" lon="4.49512">
        <ele>226</ele>
        <time>2021-09-06T08:24:23Z</time>
      </trkpt>
      <trkpt lat="44.22689" lon="4.49613">
        <ele>239</ele>
        <time>2021-09-06T08:24:42Z</time>
      </trkpt>
      <trkpt lat="44.22695" lon="4.49711">
        <ele>241</ele>
        <time>2021-09-06T08:24:58Z</time>
      </trkpt>
      <trkpt lat="44.22721" lon="4.49801">
        <ele>244</ele>
        <time>2021-09-06T08:25:14Z</time>
      </trkpt>
      <trkpt lat="44.22795" lon="4.49928">
        <ele>256</ele>
        <time>2021-09-06T08:25:42Z</time>
      </trkpt>
      <trkpt lat="44.22815" lon="4.50001">
        <ele>256</ele>
        <time>2021-09-06T08:25:55Z</time>
      </trkpt>
      <trkpt lat="44.22847" lon="4.50016">
        <ele>261</ele>
        <time>2021-09-06T08:26:03Z</time>
      </trkpt>
      <trkpt lat="44.22911" lon="4.4998">
        <ele>272</ele>
        <time>2021-09-06T08:26:19Z</time>
      </trkpt>
      <trkpt lat="44.22993" lon="4.49952">
        <ele>278</ele>
        <time>2021-09-06T08:26:38Z</time>
      </trkpt>
      <trkpt lat="44.23045" lon="4.49947">
        <ele>279</ele>
        <time>2021-09-06T08:26:51Z</time>
      </trkpt>
      <trkpt lat="44.23112" lon="4.49944">
        <ele>281</ele>
        <time>2021-09-06T08:27:06Z</time>
      </trkpt>
      <trkpt lat="44.23177" lon="4.49964">
        <ele>285</ele>
        <time>2021-09-06T08:27:22Z</time>
      </trkpt>
      <trkpt lat="44.23234" lon="4.49971">
        <ele>290</ele>
        <time>2021-09-06T08:27:35Z</time>
      </trkpt>
      <trkpt lat="44.23288" lon="4.49956">
        <ele>291</ele>
        <time>2021-09-06T08:27:48Z</time>
      </trkpt>
      <trkpt lat="44.23348" lon="4.4997">
        <ele>299</ele>
        <time>2021-09-06T08:28:02Z</time>
      </trkpt>
      <trkpt lat="44.2338" lon="4.49984">
        <ele>300</ele>
        <time>2021-09-06T08:28:10Z</time>
      </trkpt>
      <trkpt lat="44.23413" lon="4.50018">
        <ele>296</ele>
        <time>2021-09-06T08:28:20Z</time>
      </trkpt>
      <trkpt lat="44.23476" lon="4.49982">
        <ele>299</ele>
        <time>2021-09-06T08:28:36Z</time>
      </trkpt>
      <trkpt lat="44.23525" lon="4.49974">
        <ele>302</ele>
        <time>2021-09-06T08:28:47Z</time>
      </trkpt>
      <trkpt lat="44.23579" lon="4.50048">
        <ele>303</ele>
        <time>2021-09-06T08:29:05Z</time>
      </trkpt>
      <trkpt lat="44.23824" lon="4.5034">
        <ele>331</ele>
        <time>2021-09-06T08:30:20Z</time>
      </trkpt>
      <trkpt lat="44.23887" lon="4.50351">
        <ele>332</ele>
        <time>2021-09-06T08:30:35Z</time>
      </trkpt>
      <trkpt lat="44.24034" lon="4.50371">
        <ele>332</ele>
        <time>2021-09-06T08:31:09Z</time>
      </trkpt>
      <trkpt lat="44.24212" lon="4.50441">
        <ele>324</ele>
        <time>2021-09-06T08:31:52Z</time>
      </trkpt>
      <trkpt lat="44.24568" lon="4.50516">
        <ele>333</ele>
        <time>2021-09-06T08:33:17Z</time>
      </trkpt>
      <trkpt lat="44.24744" lon="4.50489">
        <ele>346</ele>
        <time>2021-09-06T08:33:58Z</time>
      </trkpt>
      <trkpt lat="44.24774" lon="4.50432">
        <ele>355</ele>
        <time>2021-09-06T08:34:10Z</time>
      </trkpt>
      <trkpt lat="44.24785" lon="4.50215">
        <ele>360</ele>
        <time>2021-09-06T08:34:46Z</time>
      </trkpt>
      <trkpt lat="44.24824" lon="4.50142">
        <ele>357</ele>
        <time>2021-09-06T08:35:01Z</time>
      </trkpt>
      <trkpt lat="44.24944" lon="4.50114">
        <ele>359</ele>
        <time>2021-09-06T08:35:30Z</time>
      </trkpt>
      <trkpt lat="44.24936" lon="4.5004">
        <ele>357</ele>
        <time>2021-09-06T08:35:42Z</time>
      </trkpt>
      <trkpt lat="44.2499" lon="4.4985">
        <ele>359</ele>
        <time>2021-09-06T08:36:17Z</time>
      </trkpt>
      <trkpt lat="44.25062" lon="4.4975">
        <ele>360</ele>
        <time>2021-09-06T08:36:40Z</time>
      </trkpt>
      <trkpt lat="44.25102" lon="4.49663">
        <ele>357</ele>
        <time>2021-09-06T08:36:58Z</time>
      </trkpt>
      <trkpt lat="44.25183" lon="4.4957">
        <ele>357</ele>
        <time>2021-09-06T08:37:22Z</time>
      </trkpt>
      <trkpt lat="44.25167" lon="4.49512">
        <ele>355</ele>
        <time>2021-09-06T08:37:32Z</time>
      </trkpt>
      <trkpt lat="44.25048" lon="4.49373">
        <ele>351</ele>
        <time>2021-09-06T08:38:09Z</time>
      </trkpt>
      <trkpt lat="44.24994" lon="4.49326">
        <ele>351</ele>
        <time>2021-09-06T08:38:23Z</time>
      </trkpt>
      <trkpt lat="44.25" lon="4.4924">
        <ele>351</ele>
        <time>2021-09-06T08:38:38Z</time>
      </trkpt>
      <trkpt lat="44.25208" lon="4.49114">
        <ele>355</ele>
        <time>2021-09-06T08:39:31Z</time>
      </trkpt>
      <trkpt lat="44.25238" lon="4.48955">
        <ele>350</ele>
        <time>2021-09-06T08:39:58Z</time>
      </trkpt>
      <trkpt lat="44.25185" lon="4.48902">
        <ele>349</ele>
        <time>2021-09-06T08:40:14Z</time>
      </trkpt>
      <trkpt lat="44.25086" lon="4.4887">
        <ele>348</ele>
        <time>2021-09-06T08:40:37Z</time>
      </trkpt>
      <trkpt lat="44.25017" lon="4.48798">
        <ele>346</ele>
        <time>2021-09-06T08:40:57Z</time>
      </trkpt>
      <trkpt lat="44.25003" lon="4.48644">
        <ele>348</ele>
        <time>2021-09-06T08:41:23Z</time>
      </trkpt>
      <trkpt lat="44.25007" lon="4.48605">
        <ele>347</ele>
        <time>2021-09-06T08:41:30Z</time>
      </trkpt>
      <trkpt lat="44.25067" lon="4.48541">
        <ele>346</ele>
        <time>2021-09-06T08:41:48Z</time>
      </trkpt>
      <trkpt lat="44.25014" lon="4.48406">
        <ele>343</ele>
        <time>2021-09-06T08:42:13Z</time>
      </trkpt>
      <trkpt lat="44.24977" lon="4.48307">
        <ele>340</ele>
        <time>2021-09-06T08:42:32Z</time>
      </trkpt>
      <trkpt lat="44.25014" lon="4.48161">
        <ele>336</ele>
        <time>2021-09-06T08:42:58Z</time>
      </trkpt>
      <trkpt lat="44.25066" lon="4.48116">
        <ele>334</ele>
        <time>2021-09-06T08:43:12Z</time>
      </trkpt>
      <trkpt lat="44.25227" lon="4.48095">
        <ele>309</ele>
        <time>2021-09-06T08:43:50Z</time>
      </trkpt>
      <trkpt lat="44.25243" lon="4.48012">
        <ele>298</ele>
        <time>2021-09-06T08:44:04Z</time>
      </trkpt>
      <trkpt lat="44.25374" lon="4.47785">
        <ele>267</ele>
        <time>2021-09-06T08:44:53Z</time>
      </trkpt>
      <trkpt lat="44.25393" lon="4.47678">
        <ele>256</ele>
        <time>2021-09-06T08:45:12Z</time>
      </trkpt>
      <trkpt lat="44.25304" lon="4.47668">
        <ele>265</ele>
        <time>2021-09-06T08:45:32Z</time>
      </trkpt>
      <trkpt lat="44.25213" lon="4.47593">
        <ele>271</ele>
        <time>2021-09-06T08:45:57Z</time>
      </trkpt>
      <trkpt lat="44.25205" lon="4.47554">
        <ele>270</ele>
        <time>2021-09-06T08:46:04Z</time>
      </trkpt>
      <trkpt lat="44.25215" lon="4.47502">
        <ele>267</ele>
        <time>2021-09-06T08:46:13Z</time>
      </trkpt>
      <trkpt lat="44.25126" lon="4.4739">
        <ele>267</ele>
        <time>2021-09-06T08:46:41Z</time>
      </trkpt>
      <trkpt lat="44.25041" lon="4.47361">
        <ele>272</ele>
        <time>2021-09-06T08:47:01Z</time>
      </trkpt>
      <trkpt lat="44.24987" lon="4.47309">
        <ele>272</ele>
        <time>2021-09-06T08:47:17Z</time>
      </trkpt>
      <trkpt lat="44.24874" lon="4.47278">
        <ele>278</ele>
        <time>2021-09-06T08:47:44Z</time>
      </trkpt>
      <trkpt lat="44.24808" lon="4.47245">
        <ele>280</ele>
        <time>2021-09-06T08:48:00Z</time>
      </trkpt>
      <trkpt lat="44.24765" lon="4.47187">
        <ele>275</ele>
        <time>2021-09-06T08:48:14Z</time>
      </trkpt>
      <trkpt lat="44.24711" lon="4.47141">
        <ele>271</ele>
        <time>2021-09-06T08:48:29Z</time>
      </trkpt>
      <trkpt lat="44.24679" lon="4.47087">
        <ele>267</ele>
        <time>2021-09-06T08:48:40Z</time>
      </trkpt>
      <trkpt lat="44.24579" lon="4.47075">
        <ele>255</ele>
        <time>2021-09-06T08:49:04Z</time>
      </trkpt>
      <trkpt lat="44.24583" lon="4.47108">
        <ele>253</ele>
        <time>2021-09-06T08:49:09Z</time>
      </trkpt>
      <trkpt lat="44.24517" lon="4.47196">
        <ele>240</ele>
        <time>2021-09-06T08:49:31Z</time>
      </trkpt>
      <trkpt lat="44.24459" lon="4.47223">
        <ele>233</ele>
        <time>2021-09-06T08:49:45Z</time>
      </trkpt>
      <trkpt lat="44.24396" lon="4.47174">
        <ele>220</ele>
        <time>2021-09-06T08:50:02Z</time>
      </trkpt>
      <trkpt lat="44.24365" lon="4.47167">
        <ele>213</ele>
        <time>2021-09-06T08:50:09Z</time>
      </trkpt>
      <trkpt lat="44.243" lon="4.47">
        <ele>187</ele>
        <time>2021-09-06T08:50:41Z</time>
      </trkpt>
      <trkpt lat="44.24291" lon="4.46975">
        <ele>181</ele>
        <time>2021-09-06T08:50:46Z</time>
      </trkpt>
      <trkpt lat="44.24303" lon="4.46908">
        <ele>175</ele>
        <time>2021-09-06T08:50:57Z</time>
      </trkpt>
      <trkpt lat="44.24265" lon="4.46936">
        <ele>169</ele>
        <time>2021-09-06T08:51:07Z</time>
      </trkpt>
      <trkpt lat="44.2426" lon="4.46887">
        <ele>162</ele>
        <time>2021-09-06T08:51:16Z</time>
      </trkpt>
      <trkpt lat="44.24283" lon="4.46837">
        <ele>160</ele>
        <time>2021-09-06T08:51:26Z</time>
      </trkpt>
      <trkpt lat="44.24274" lon="4.46805">
        <ele>154</ele>
        <time>2021-09-06T08:51:31Z</time>
      </trkpt>
      <trkpt lat="44.24233" lon="4.46786">
        <ele>145</ele>
        <time>2021-09-06T08:51:41Z</time>
      </trkpt>
      <trkpt lat="44.24194" lon="4.46702">
        <ele>135</ele>
        <time>2021-09-06T08:51:58Z</time>
      </trkpt>
      <trkpt lat="44.24145" lon="4.46654">
        <ele>131</ele>
        <time>2021-09-06T08:52:12Z</time>
      </trkpt>
      <trkpt lat="44.24099" lon="4.46601">
        <ele>129</ele>
        <time>2021-09-06T08:52:26Z</time>
      </trkpt>
      <trkpt lat="44.24099" lon="4.46545">
        <ele>127</ele>
        <time>2021-09-06T08:52:35Z</time>
      </trkpt>
      <trkpt lat="44.24068" lon="4.46517">
        <ele>126</ele>
        <time>2021-09-06T08:52:44Z</time>
      </trkpt>
      <trkpt lat="44.24063" lon="4.46347">
        <ele>120</ele>
        <time>2021-09-06T08:53:12Z</time>
      </trkpt>
      <trkpt lat="44.24094" lon="4.46114">
        <ele>112</ele>
        <time>2021-09-06T08:53:52Z</time>
      </trkpt>
      <trkpt lat="44.24066" lon="4.46031">
        <ele>107</ele>
        <time>2021-09-06T08:54:07Z</time>
      </trkpt>
      <trkpt lat="44.24053" lon="4.46004">
        <ele>105</ele>
        <time>2021-09-06T08:54:13Z</time>
      </trkpt>
      <trkpt lat="44.2411" lon="4.45871">
        <ele>102</ele>
        <time>2021-09-06T08:54:39Z</time>
      </trkpt>
      <trkpt lat="44.24036" lon="4.45837">
        <ele>107</ele>
        <time>2021-09-06T08:54:57Z</time>
      </trkpt>
      <trkpt lat="44.24043" lon="4.45736">
        <ele>115</ele>
        <time>2021-09-06T08:55:14Z</time>
      </trkpt>
      <trkpt lat="44.24016" lon="4.45709">
        <ele>118</ele>
        <time>2021-09-06T08:55:22Z</time>
      </trkpt>
      <trkpt lat="44.23965" lon="4.45739">
        <ele>117</ele>
        <time>2021-09-06T08:55:35Z</time>
      </trkpt>
      <trkpt lat="44.23916" lon="4.45779">
        <ele>116</ele>
        <time>2021-09-06T08:55:48Z</time>
      </trkpt>
      <trkpt lat="44.24005" lon="4.45856">
        <ele>109</ele>
        <time>2021-09-06T08:56:12Z</time>
      </trkpt>
      <trkpt lat="44.24002" lon="4.45925">
        <ele>106</ele>
        <time>2021-09-06T08:56:24Z</time>
      </trkpt>
      <trkpt lat="44.2402" lon="4.45999">
        <ele>106</ele>
        <time>2021-09-06T08:56:37Z</time>
      </trkpt>
      <trkpt lat="44.23963" lon="4.4611">
        <ele>112</ele>
        <time>2021-09-06T08:57:00Z</time>
      </trkpt>
      <trkpt lat="44.23913" lon="4.46187">
        <ele>114</ele>
        <time>2021-09-06T08:57:17Z</time>
      </trkpt>
      <trkpt lat="44.23983" lon="4.46272">
        <ele>117</ele>
        <time>2021-09-06T08:57:39Z</time>
      </trkpt>
      <trkpt lat="44.23993" lon="4.46361">
        <ele>122</ele>
        <time>2021-09-06T08:57:54Z</time>
      </trkpt>
      <trkpt lat="44.23974" lon="4.46592">
        <ele>133</ele>
        <time>2021-09-06T08:58:33Z</time>
      </trkpt>
      <trkpt lat="44.23988" lon="4.46644">
        <ele>135</ele>
        <time>2021-09-06T08:58:42Z</time>
      </trkpt>
      <trkpt lat="44.23934" lon="4.46996">
        <ele>130</ele>
        <time>2021-09-06T08:59:42Z</time>
      </trkpt>
      <trkpt lat="44.23925" lon="4.47191">
        <ele>135</ele>
        <time>2021-09-06T09:00:15Z</time>
      </trkpt>
      <trkpt lat="44.23926" lon="4.47254">
        <ele>138</ele>
        <time>2021-09-06T09:00:26Z</time>
      </trkpt>
      <trkpt lat="44.23962" lon="4.47292">
        <ele>140</ele>
        <time>2021-09-06T09:00:36Z</time>
      </trkpt>
      <trkpt lat="44.23991" lon="4.47408">
        <ele>144</ele>
        <time>2021-09-06T09:00:57Z</time>
      </trkpt>
      <trkpt lat="44.23999" lon="4.47584">
        <ele>158</ele>
        <time>2021-09-06T09:01:26Z</time>
      </trkpt>
      <trkpt lat="44.23981" lon="4.47699">
        <ele>159</ele>
        <time>2021-09-06T09:01:46Z</time>
      </trkpt>
      <trkpt lat="44.2398" lon="4.47884">
        <ele>170</ele>
        <time>2021-09-06T09:02:17Z</time>
      </trkpt>
      <trkpt lat="44.24023" lon="4.47928">
        <ele>178</ele>
        <time>2021-09-06T09:02:29Z</time>
      </trkpt>
      <trkpt lat="44.24014" lon="4.48116">
        <ele>185</ele>
        <time>2021-09-06T09:03:01Z</time>
      </trkpt>
      <trkpt lat="44.24077" lon="4.48311">
        <ele>190</ele>
        <time>2021-09-06T09:03:37Z</time>
      </trkpt>
      <trkpt lat="44.24052" lon="4.48357">
        <ele>178</ele>
        <time>2021-09-06T09:03:46Z</time>
      </trkpt>
      <trkpt lat="44.24104" lon="4.48621">
        <ele>169</ele>
        <time>2021-09-06T09:04:32Z</time>
      </trkpt>
      <trkpt lat="44.24162" lon="4.48656">
        <ele>176</ele>
        <time>2021-09-06T09:04:47Z</time>
      </trkpt>
      <trkpt lat="44.24191" lon="4.48715">
        <ele>180</ele>
        <time>2021-09-06T09:04:59Z</time>
      </trkpt>
      <trkpt lat="44.24099" lon="4.48712">
        <ele>162</ele>
        <time>2021-09-06T09:05:20Z</time>
      </trkpt>
      <trkpt lat="44.24104" lon="4.48768">
        <ele>161</ele>
        <time>2021-09-06T09:05:30Z</time>
      </trkpt>
      <trkpt lat="44.24128" lon="4.488">
        <ele>165</ele>
        <time>2021-09-06T09:05:38Z</time>
      </trkpt>
      <trkpt lat="44.24152" lon="4.48887">
        <ele>170</ele>
        <time>2021-09-06T09:05:53Z</time>
      </trkpt>
      <trkpt lat="44.2413" lon="4.48899">
        <ele>169</ele>
        <time>2021-09-06T09:05:59Z</time>
      </trkpt>
      <trkpt lat="44.24174" lon="4.49022">
        <ele>182</ele>
        <time>2021-09-06T09:06:22Z</time>
      </trkpt>
      <trkpt lat="44.24132" lon="4.49118">
        <ele>187</ele>
        <time>2021-09-06T09:06:40Z</time>
      </trkpt>
      <trkpt lat="44.24068" lon="4.4914">
        <ele>182</ele>
        <time>2021-09-06T09:06:56Z</time>
      </trkpt>
      <trkpt lat="44.24006" lon="4.49213">
        <ele>183</ele>
        <time>2021-09-06T09:07:15Z</time>
      </trkpt>
      <trkpt lat="44.23961" lon="4.49238">
        <ele>185</ele>
        <time>2021-09-06T09:07:26Z</time>
      </trkpt>
      <trkpt lat="44.23915" lon="4.49194">
        <ele>182</ele>
        <time>2021-09-06T09:07:39Z</time>
      </trkpt>
      <trkpt lat="44.23898" lon="4.49154">
        <ele>180</ele>
        <time>2021-09-06T09:07:47Z</time>
      </trkpt>
      <trkpt lat="44.23836" lon="4.49116">
        <ele>180</ele>
        <time>2021-09-06T09:08:03Z</time>
      </trkpt>
      <trkpt lat="44.23819" lon="4.49013">
        <ele>177</ele>
        <time>2021-09-06T09:08:20Z</time>
      </trkpt>
      <trkpt lat="44.23806" lon="4.48922">
        <ele>174</ele>
        <time>2021-09-06T09:08:36Z</time>
      </trkpt>
      <trkpt lat="44.23755" lon="4.48906">
        <ele>176</ele>
        <time>2021-09-06T09:08:48Z</time>
      </trkpt>
      <trkpt lat="44.2373" lon="4.48912">
        <ele>180</ele>
        <time>2021-09-06T09:08:54Z</time>
      </trkpt>
      <trkpt lat="44.23641" lon="4.48673">
        <ele>176</ele>
        <time>2021-09-06T09:09:39Z</time>
      </trkpt>
      <trkpt lat="44.2355" lon="4.48525">
        <ele>175</ele>
        <time>2021-09-06T09:10:12Z</time>
      </trkpt>
      <trkpt lat="44.23502" lon="4.48477">
        <ele>171</ele>
        <time>2021-09-06T09:10:26Z</time>
      </trkpt>
      <trkpt lat="44.23372" lon="4.4864">
        <ele>167</ele>
        <time>2021-09-06T09:11:06Z</time>
      </trkpt>
      <trkpt lat="44.2339" lon="4.48558">
        <ele>163</ele>
        <time>2021-09-06T09:11:21Z</time>
      </trkpt>
      <trkpt lat="44.23252" lon="4.48506">
        <ele>148</ele>
        <time>2021-09-06T09:11:54Z</time>
      </trkpt>
      <trkpt lat="44.23169" lon="4.48433">
        <ele>150</ele>
        <time>2021-09-06T09:12:17Z</time>
      </trkpt>
      <trkpt lat="44.23072" lon="4.48588">
        <ele>146</ele>
        <time>2021-09-06T09:12:51Z</time>
      </trkpt>
      <trkpt lat="44.23031" lon="4.48621">
        <ele>146</ele>
        <time>2021-09-06T09:13:03Z</time>
      </trkpt>
      <trkpt lat="44.2291" lon="4.48661">
        <ele>140</ele>
        <time>2021-09-06T09:13:32Z</time>
      </trkpt>
      <trkpt lat="44.22915" lon="4.48807">
        <ele>141</ele>
        <time>2021-09-06T09:13:56Z</time>
      </trkpt>
      <trkpt lat="44.22878" lon="4.4891">
        <ele>138</ele>
        <time>2021-09-06T09:14:15Z</time>
      </trkpt>
      <trkpt lat="44.22794" lon="4.48981">
        <ele>139</ele>
        <time>2021-09-06T09:14:38Z</time>
      </trkpt>
      <trkpt lat="44.22717" lon="4.48985">
        <ele>140</ele>
        <time>2021-09-06T09:14:56Z</time>
      </trkpt>
      <trkpt lat="44.22667" lon="4.49031">
        <ele>145</ele>
        <time>2021-09-06T09:15:10Z</time>
      </trkpt>
      <trkpt lat="44.22641" lon="4.49023">
        <ele>147</ele>
        <time>2021-09-06T09:15:16Z</time>
      </trkpt>
      <trkpt lat="44.22639" lon="4.48961">
        <ele>142</ele>
        <time>2021-09-06T09:15:27Z</time>
      </trkpt>
      <trkpt lat="44.22625" lon="4.48929">
        <ele>143</ele>
        <time>2021-09-06T09:15:33Z</time>
      </trkpt>
      <trkpt lat="44.22525" lon="4.48844">
        <ele>159</ele>
        <time>2021-09-06T09:16:00Z</time>
      </trkpt>
      <trkpt lat="44.22554" lon="4.48697">
        <ele>155</ele>
        <time>2021-09-06T09:16:26Z</time>
      </trkpt>
      <trkpt lat="44.22558" lon="4.48616">
        <ele>149</ele>
        <time>2021-09-06T09:16:40Z</time>
      </trkpt>
      <trkpt lat="44.22528" lon="4.48494">
        <ele>139</ele>
        <time>2021-09-06T09:17:01Z</time>
      </trkpt>
      <trkpt lat="44.22463" lon="4.48485">
        <ele>136</ele>
        <time>2021-09-06T09:17:16Z</time>
      </trkpt>
      <trkpt lat="44.22391" lon="4.48614">
        <ele>141</ele>
        <time>2021-09-06T09:17:44Z</time>
      </trkpt>
      <trkpt lat="44.22321" lon="4.48767">
        <ele>136</ele>
        <time>2021-09-06T09:18:14Z</time>
      </trkpt>
      <trkpt lat="44.22252" lon="4.48762">
        <ele>129</ele>
        <time>2021-09-06T09:18:30Z</time>
      </trkpt>
      <trkpt lat="44.22211" lon="4.48708">
        <ele>116</ele>
        <time>2021-09-06T09:18:43Z</time>
      </trkpt>
      <trkpt lat="44.22056" lon="4.48734">
        <ele>109</ele>
        <time>2021-09-06T09:19:20Z</time>
      </trkpt>
      <trkpt lat="44.21896" lon="4.4881">
        <ele>98</ele>
        <time>2021-09-06T09:19:59Z</time>
      </trkpt>
      <trkpt lat="44.21865" lon="4.48742">
        <ele>92</ele>
        <time>2021-09-06T09:20:13Z</time>
      </trkpt>
      <trkpt lat="44.21883" lon="4.48611">
        <ele>88</ele>
        <time>2021-09-06T09:20:35Z</time>
      </trkpt>
      <trkpt lat="44.21859" lon="4.4857">
        <ele>87</ele>
        <time>2021-09-06T09:20:44Z</time>
      </trkpt>
      <trkpt lat="44.21826" lon="4.48578">
        <ele>89</ele>
        <time>2021-09-06T09:20:52Z</time>
      </trkpt>
    </trkseg>
  </trk>
</gpx>